sensor_id;sensor_type;location;lat;lon;timestamp;temperature;humidity
28863;DHT22;15994;51.796;13.006;2022-09-12T00:00:43;13.90;99.90
28863;DHT22;15994;51.796;13.006;2022-09-12T00:03:09;13.80;99.90
28863;DHT22;15994;51.796;13.006;2022-09-12T00:05:46;13.70;99.90
28863;DHT22;15994;51.796;13.006;2022-09-12T00:08:13;13.70;99.90
28863;DHT22;15994;51.796;13.006;2022-09-12T00:10:41;13.60;99.90
28863;DHT22;15994;51.796;13.006;2022-09-12T00:13:08;13.60;99.90
28863;DHT22;15994;51.796;13.006;2022-09-12T00:15:40;13.50;99.90
28863;DHT22;15994;51.796;13.006;2022-09-12T00:18:14;13.40;99.90
28863;DHT22;15994;51.796;13.006;2022-09-12T00:20:45;13.30;99.90
28863;DHT22;15994;51.796;13.006;2022-09-12T00:23:13;13.30;99.90
28863;DHT22;15994;51.796;13.006;2022-09-12T00:25:44;13.30;99.90
28863;DHT22;15994;51.796;13.006;2022-09-12T00:28:12;13.20;99.90
28863;DHT22;15994;51.796;13.006;2022-09-12T00:30:43;13.20;99.90
28863;DHT22;15994;51.796;13.006;2022-09-12T00:33:10;13.20;99.90
28863;DHT22;15994;51.796;13.006;2022-09-12T00:35:44;13.20;99.90
28863;DHT22;15994;51.796;13.006;2022-09-12T00:38:12;13.10;99.90
28863;DHT22;15994;51.796;13.006;2022-09-12T00:40:40;13.00;99.90
28863;DHT22;15994;51.796;13.006;2022-09-12T00:46:00;12.90;99.90
28863;DHT22;15994;51.796;13.006;2022-09-12T00:48:34;12.90;99.90
28863;DHT22;15994;51.796;13.006;2022-09-12T00:51:02;12.90;99.90
28863;DHT22;15994;51.796;13.006;2022-09-12T00:53:29;13.00;99.90
28863;DHT22;15994;51.796;13.006;2022-09-12T00:55:57;13.00;99.90
28863;DHT22;15994;51.796;13.006;2022-09-12T00:58:28;12.90;99.90
28863;DHT22;15994;51.796;13.006;2022-09-12T01:00:56;12.90;99.90
28863;DHT22;15994;51.796;13.006;2022-09-12T01:03:24;12.90;99.90
28863;DHT22;15994;51.796;13.006;2022-09-12T01:08:31;12.80;99.90
28863;DHT22;15994;51.796;13.006;2022-09-12T01:10:58;12.80;99.90
28863;DHT22;15994;51.796;13.006;2022-09-12T01:13:25;12.80;99.90
28863;DHT22;15994;51.796;13.006;2022-09-12T01:15:51;12.70;99.90
28863;DHT22;15994;51.796;13.006;2022-09-12T01:29:43;12.60;99.90
28863;DHT22;15994;51.796;13.006;2022-09-12T01:41:39;12.70;99.90
28863;DHT22;15994;51.796;13.006;2022-09-12T01:46:55;12.80;99.90
28863;DHT22;15994;51.796;13.006;2022-09-12T01:49:28;12.70;99.90
28863;DHT22;15994;51.796;13.006;2022-09-12T01:52:59;12.70;99.90
28863;DHT22;15994;51.796;13.006;2022-09-12T01:55:21;12.70;99.90
28863;DHT22;15994;51.796;13.006;2022-09-12T01:58:08;12.70;99.90
28863;DHT22;15994;51.796;13.006;2022-09-12T02:00:54;12.70;99.90
28863;DHT22;15994;51.796;13.006;2022-09-12T02:03:27;12.70;99.90
28863;DHT22;15994;51.796;13.006;2022-09-12T02:05:56;12.70;99.90
28863;DHT22;15994;51.796;13.006;2022-09-12T02:08:30;12.60;99.90
28863;DHT22;15994;51.796;13.006;2022-09-12T02:11:07;12.60;99.90
28863;DHT22;15994;51.796;13.006;2022-09-12T02:13:47;12.60;99.90
28863;DHT22;15994;51.796;13.006;2022-09-12T02:16:20;12.60;99.90
28863;DHT22;15994;51.796;13.006;2022-09-12T02:18:54;12.50;99.90
28863;DHT22;15994;51.796;13.006;2022-09-12T02:21:23;12.50;99.90
28863;DHT22;15994;51.796;13.006;2022-09-12T02:23:56;12.50;99.90
28863;DHT22;15994;51.796;13.006;2022-09-12T02:26:28;12.40;99.90
28863;DHT22;15994;51.796;13.006;2022-09-12T02:28:56;12.40;99.90
28863;DHT22;15994;51.796;13.006;2022-09-12T02:31:45;12.40;99.90
28863;DHT22;15994;51.796;13.006;2022-09-12T02:39:37;12.20;99.90
28863;DHT22;15994;51.796;13.006;2022-09-12T02:42:04;12.20;99.90
28863;DHT22;15994;51.796;13.006;2022-09-12T02:44:32;12.20;99.90
28863;DHT22;15994;51.796;13.006;2022-09-12T02:47:04;12.20;99.90
28863;DHT22;15994;51.796;13.006;2022-09-12T02:49:31;12.20;99.90
28863;DHT22;15994;51.796;13.006;2022-09-12T02:51:58;12.20;99.90
28863;DHT22;15994;51.796;13.006;2022-09-12T02:54:27;12.10;99.90
28863;DHT22;15994;51.796;13.006;2022-09-12T02:56:54;12.10;99.90
28863;DHT22;15994;51.796;13.006;2022-09-12T02:59:22;12.10;99.90
28863;DHT22;15994;51.796;13.006;2022-09-12T03:02:23;12.10;99.90
28863;DHT22;15994;51.796;13.006;2022-09-12T03:05:29;12.10;99.90
28863;DHT22;15994;51.796;13.006;2022-09-12T03:19:32;12.30;99.90
28863;DHT22;15994;51.796;13.006;2022-09-12T03:22:08;12.40;99.90
28863;DHT22;15994;51.796;13.006;2022-09-12T03:30:19;12.40;99.90
28863;DHT22;15994;51.796;13.006;2022-09-12T03:32:48;12.30;99.90
28863;DHT22;15994;51.796;13.006;2022-09-12T03:35:17;12.30;99.90
28863;DHT22;15994;51.796;13.006;2022-09-12T03:37:45;12.40;99.90
28863;DHT22;15994;51.796;13.006;2022-09-12T03:40:11;12.40;99.90
28863;DHT22;15994;51.796;13.006;2022-09-12T03:42:38;12.40;99.90
28863;DHT22;15994;51.796;13.006;2022-09-12T03:45:05;12.50;99.90
28863;DHT22;15994;51.796;13.006;2022-09-12T03:47:32;12.50;99.90
28863;DHT22;15994;51.796;13.006;2022-09-12T03:49:58;12.60;99.90
28863;DHT22;15994;51.796;13.006;2022-09-12T03:52:25;12.60;99.90
28863;DHT22;15994;51.796;13.006;2022-09-12T03:54:51;12.60;99.90
28863;DHT22;15994;51.796;13.006;2022-09-12T03:57:18;12.70;99.90
28863;DHT22;15994;51.796;13.006;2022-09-12T03:59:45;12.70;99.90
28863;DHT22;15994;51.796;13.006;2022-09-12T04:02:11;12.70;99.90
28863;DHT22;15994;51.796;13.006;2022-09-12T04:04:39;12.70;99.90
28863;DHT22;15994;51.796;13.006;2022-09-12T04:07:08;12.70;99.90
28863;DHT22;15994;51.796;13.006;2022-09-12T04:09:34;12.80;99.90
28863;DHT22;15994;51.796;13.006;2022-09-12T04:12:01;12.80;99.90
28863;DHT22;15994;51.796;13.006;2022-09-12T04:14:28;12.80;99.90
28863;DHT22;15994;51.796;13.006;2022-09-12T04:16:54;12.90;99.90
28863;DHT22;15994;51.796;13.006;2022-09-12T04:19:21;12.80;99.90
28863;DHT22;15994;51.796;13.006;2022-09-12T04:21:48;12.80;99.90
28863;DHT22;15994;51.796;13.006;2022-09-12T04:24:14;12.90;99.90
28863;DHT22;15994;51.796;13.006;2022-09-12T04:26:41;12.80;99.90
28863;DHT22;15994;51.796;13.006;2022-09-12T04:29:12;12.90;99.90
28863;DHT22;15994;51.796;13.006;2022-09-12T04:31:39;12.90;99.90
28863;DHT22;15994;51.796;13.006;2022-09-12T04:34:06;12.90;99.90
28863;DHT22;15994;51.796;13.006;2022-09-12T04:36:33;12.90;99.90
28863;DHT22;15994;51.796;13.006;2022-09-12T04:39:01;12.90;99.90
28863;DHT22;15994;51.796;13.006;2022-09-12T04:41:30;12.80;99.90
28863;DHT22;15994;51.796;13.006;2022-09-12T04:43:59;12.80;99.90
28863;DHT22;15994;51.796;13.006;2022-09-12T04:46:28;12.80;99.90
28863;DHT22;15994;51.796;13.006;2022-09-12T04:48:55;12.70;99.90
28863;DHT22;15994;51.796;13.006;2022-09-12T04:51:24;12.70;99.90
28863;DHT22;15994;51.796;13.006;2022-09-12T04:53:53;12.70;99.90
28863;DHT22;15994;51.796;13.006;2022-09-12T04:56:20;12.70;99.90
28863;DHT22;15994;51.796;13.006;2022-09-12T04:58:47;12.70;99.90
28863;DHT22;15994;51.796;13.006;2022-09-12T05:01:18;12.60;99.90
28863;DHT22;15994;51.796;13.006;2022-09-12T05:03:46;12.50;99.90
28863;DHT22;15994;51.796;13.006;2022-09-12T05:06:18;12.50;99.90
28863;DHT22;15994;51.796;13.006;2022-09-12T05:08:45;12.40;99.90
28863;DHT22;15994;51.796;13.006;2022-09-12T05:11:19;12.30;99.90
28863;DHT22;15994;51.796;13.006;2022-09-12T05:13:46;12.30;99.90
28863;DHT22;15994;51.796;13.006;2022-09-12T05:16:13;12.30;99.90
28863;DHT22;15994;51.796;13.006;2022-09-12T05:18:41;12.30;99.90
28863;DHT22;15994;51.796;13.006;2022-09-12T05:21:11;12.30;99.90
28863;DHT22;15994;51.796;13.006;2022-09-12T05:23:38;12.30;99.90
28863;DHT22;15994;51.796;13.006;2022-09-12T05:26:05;12.30;99.90
28863;DHT22;15994;51.796;13.006;2022-09-12T05:28:36;12.30;99.90
28863;DHT22;15994;51.796;13.006;2022-09-12T05:31:09;12.30;99.90
28863;DHT22;15994;51.796;13.006;2022-09-12T05:33:37;12.30;99.90
28863;DHT22;15994;51.796;13.006;2022-09-12T05:36:08;12.30;99.90
28863;DHT22;15994;51.796;13.006;2022-09-12T05:38:35;12.40;99.90
28863;DHT22;15994;51.796;13.006;2022-09-12T05:41:04;12.50;99.90
28863;DHT22;15994;51.796;13.006;2022-09-12T05:43:34;12.60;99.90
28863;DHT22;15994;51.796;13.006;2022-09-12T05:46:03;12.80;99.90
28863;DHT22;15994;51.796;13.006;2022-09-12T05:48:36;12.90;99.90
28863;DHT22;15994;51.796;13.006;2022-09-12T05:51:05;13.10;99.90
28863;DHT22;15994;51.796;13.006;2022-09-12T05:53:34;13.20;99.90
28863;DHT22;15994;51.796;13.006;2022-09-12T05:56:11;13.40;99.90
28863;DHT22;15994;51.796;13.006;2022-09-12T05:58:40;13.50;99.90
28863;DHT22;15994;51.796;13.006;2022-09-12T06:01:12;13.70;99.90
28863;DHT22;15994;51.796;13.006;2022-09-12T06:03:44;14.00;99.90
28863;DHT22;15994;51.796;13.006;2022-09-12T06:06:13;14.20;99.90
28863;DHT22;15994;51.796;13.006;2022-09-12T06:08:41;14.30;99.90
28863;DHT22;15994;51.796;13.006;2022-09-12T06:11:11;14.40;99.90
28863;DHT22;15994;51.796;13.006;2022-09-12T06:13:39;14.40;99.90
28863;DHT22;15994;51.796;13.006;2022-09-12T06:16:11;14.50;99.90
28863;DHT22;15994;51.796;13.006;2022-09-12T06:18:39;14.60;99.90
28863;DHT22;15994;51.796;13.006;2022-09-12T06:21:09;14.60;99.90
28863;DHT22;15994;51.796;13.006;2022-09-12T06:23:36;14.70;99.90
28863;DHT22;15994;51.796;13.006;2022-09-12T06:26:04;14.90;99.90
28863;DHT22;15994;51.796;13.006;2022-09-12T06:28:33;14.90;99.90
28863;DHT22;15994;51.796;13.006;2022-09-12T06:31:11;15.00;99.90
28863;DHT22;15994;51.796;13.006;2022-09-12T06:33:41;15.00;99.90
28863;DHT22;15994;51.796;13.006;2022-09-12T06:36:11;15.00;99.90
28863;DHT22;15994;51.796;13.006;2022-09-12T06:38:38;14.90;99.90
28863;DHT22;15994;51.796;13.006;2022-09-12T06:41:09;14.80;99.90
28863;DHT22;15994;51.796;13.006;2022-09-12T06:43:37;14.80;99.90
28863;DHT22;15994;51.796;13.006;2022-09-12T06:46:04;14.70;99.90
28863;DHT22;15994;51.796;13.006;2022-09-12T06:48:32;14.70;99.90
28863;DHT22;15994;51.796;13.006;2022-09-12T06:51:08;14.60;99.90
28863;DHT22;15994;51.796;13.006;2022-09-12T06:53:35;14.70;99.90
28863;DHT22;15994;51.796;13.006;2022-09-12T06:56:05;14.70;99.90
28863;DHT22;15994;51.796;13.006;2022-09-12T06:58:33;14.70;99.90
28863;DHT22;15994;51.796;13.006;2022-09-12T07:01:01;14.70;99.90
28863;DHT22;15994;51.796;13.006;2022-09-12T07:03:29;14.80;99.90
28863;DHT22;15994;51.796;13.006;2022-09-12T07:05:56;15.00;99.90
28863;DHT22;15994;51.796;13.006;2022-09-12T07:08:23;15.10;99.90
28863;DHT22;15994;51.796;13.006;2022-09-12T07:10:49;15.20;99.90
28863;DHT22;15994;51.796;13.006;2022-09-12T07:13:16;15.30;99.90
28863;DHT22;15994;51.796;13.006;2022-09-12T07:15:43;15.40;99.90
28863;DHT22;15994;51.796;13.006;2022-09-12T07:18:10;15.40;99.90
28863;DHT22;15994;51.796;13.006;2022-09-12T07:20:36;15.50;99.90
28863;DHT22;15994;51.796;13.006;2022-09-12T07:23:03;15.60;99.90
28863;DHT22;15994;51.796;13.006;2022-09-12T07:25:30;15.70;99.90
28863;DHT22;15994;51.796;13.006;2022-09-12T07:27:56;15.80;99.90
28863;DHT22;15994;51.796;13.006;2022-09-12T07:30:23;16.00;99.90
28863;DHT22;15994;51.796;13.006;2022-09-12T07:32:53;16.10;99.90
28863;DHT22;15994;51.796;13.006;2022-09-12T07:35:20;16.10;99.90
28863;DHT22;15994;51.796;13.006;2022-09-12T07:37:47;16.30;99.90
28863;DHT22;15994;51.796;13.006;2022-09-12T07:40:13;16.40;99.90
28863;DHT22;15994;51.796;13.006;2022-09-12T07:42:40;16.40;99.90
28863;DHT22;15994;51.796;13.006;2022-09-12T07:45:07;16.50;99.90
28863;DHT22;15994;51.796;13.006;2022-09-12T07:47:34;16.70;99.90
28863;DHT22;15994;51.796;13.006;2022-09-12T07:50:01;16.90;99.90
28863;DHT22;15994;51.796;13.006;2022-09-12T07:52:27;17.00;99.90
28863;DHT22;15994;51.796;13.006;2022-09-12T07:54:54;17.10;99.90
28863;DHT22;15994;51.796;13.006;2022-09-12T07:57:20;17.20;99.90
28863;DHT22;15994;51.796;13.006;2022-09-12T07:59:47;17.30;99.90
28863;DHT22;15994;51.796;13.006;2022-09-12T08:02:13;17.30;99.90
28863;DHT22;15994;51.796;13.006;2022-09-12T08:04:40;17.20;99.90
28863;DHT22;15994;51.796;13.006;2022-09-12T08:07:07;17.10;99.90
28863;DHT22;15994;51.796;13.006;2022-09-12T08:09:34;17.20;99.90
28863;DHT22;15994;51.796;13.006;2022-09-12T08:12:01;17.30;99.90
28863;DHT22;15994;51.796;13.006;2022-09-12T08:14:27;17.30;99.90
28863;DHT22;15994;51.796;13.006;2022-09-12T08:16:54;17.30;99.90
28863;DHT22;15994;51.796;13.006;2022-09-12T08:19:21;17.30;99.90
28863;DHT22;15994;51.796;13.006;2022-09-12T08:21:48;17.40;99.90
28863;DHT22;15994;51.796;13.006;2022-09-12T08:24:14;17.30;99.90
28863;DHT22;15994;51.796;13.006;2022-09-12T08:26:41;17.40;99.90
28863;DHT22;15994;51.796;13.006;2022-09-12T08:29:07;17.40;99.90
28863;DHT22;15994;51.796;13.006;2022-09-12T08:31:34;17.40;99.90
28863;DHT22;15994;51.796;13.006;2022-09-12T08:34:04;17.30;99.90
28863;DHT22;15994;51.796;13.006;2022-09-12T08:36:31;17.20;99.90
28863;DHT22;15994;51.796;13.006;2022-09-12T08:39:00;17.20;99.90
28863;DHT22;15994;51.796;13.006;2022-09-12T08:44:08;17.40;99.90
28863;DHT22;15994;51.796;13.006;2022-09-12T08:46:53;17.50;99.90
28863;DHT22;15994;51.796;13.006;2022-09-12T08:52:35;17.60;99.90
28863;DHT22;15994;51.796;13.006;2022-09-12T08:55:04;17.60;99.90
28863;DHT22;15994;51.796;13.006;2022-09-12T08:57:32;17.70;99.90
28863;DHT22;15994;51.796;13.006;2022-09-12T09:00:02;17.70;99.90
28863;DHT22;15994;51.796;13.006;2022-09-12T09:07:45;17.80;99.90
28863;DHT22;15994;51.796;13.006;2022-09-12T09:10:37;17.90;99.90
28863;DHT22;15994;51.796;13.006;2022-09-12T09:16:09;18.00;99.90
28863;DHT22;15994;51.796;13.006;2022-09-12T09:18:41;17.90;99.90
28863;DHT22;15994;51.796;13.006;2022-09-12T09:21:25;17.90;99.90
28863;DHT22;15994;51.796;13.006;2022-09-12T09:24:07;18.00;99.90
28863;DHT22;15994;51.796;13.006;2022-09-12T09:26:38;18.20;99.90
28863;DHT22;15994;51.796;13.006;2022-09-12T09:29:22;18.30;99.90
28863;DHT22;15994;51.796;13.006;2022-09-12T09:31:55;18.40;99.90
28863;DHT22;15994;51.796;13.006;2022-09-12T09:34:27;18.50;99.90
28863;DHT22;15994;51.796;13.006;2022-09-12T09:45:13;18.90;99.90
28863;DHT22;15994;51.796;13.006;2022-09-12T09:47:53;19.10;99.90
28863;DHT22;15994;51.796;13.006;2022-09-12T09:50:23;19.00;99.90
28863;DHT22;15994;51.796;13.006;2022-09-12T09:52:50;19.20;99.90
28863;DHT22;15994;51.796;13.006;2022-09-12T09:55:22;19.20;99.90
28863;DHT22;15994;51.796;13.006;2022-09-12T09:57:50;19.40;99.90
28863;DHT22;15994;51.796;13.006;2022-09-12T10:03:01;19.70;99.90
28863;DHT22;15994;51.796;13.006;2022-09-12T10:05:29;19.80;99.90
28863;DHT22;15994;51.796;13.006;2022-09-12T10:07:57;19.60;99.90
28863;DHT22;15994;51.796;13.006;2022-09-12T10:10:24;19.40;99.90
28863;DHT22;15994;51.796;13.006;2022-09-12T10:13:07;19.10;99.90
28863;DHT22;15994;51.796;13.006;2022-09-12T10:15:34;19.20;99.90
28863;DHT22;15994;51.796;13.006;2022-09-12T10:18:02;19.20;99.90
28863;DHT22;15994;51.796;13.006;2022-09-12T10:20:41;19.30;99.90
28863;DHT22;15994;51.796;13.006;2022-09-12T10:25:52;19.80;99.90
28863;DHT22;15994;51.796;13.006;2022-09-12T10:28:23;19.50;99.90
28863;DHT22;15994;51.796;13.006;2022-09-12T10:30:52;19.50;99.90
28863;DHT22;15994;51.796;13.006;2022-09-12T10:33:21;19.50;99.90
28863;DHT22;15994;51.796;13.006;2022-09-12T10:35:52;19.60;99.90
28863;DHT22;15994;51.796;13.006;2022-09-12T10:38:31;19.50;99.90
28863;DHT22;15994;51.796;13.006;2022-09-12T10:41:06;19.50;99.90
28863;DHT22;15994;51.796;13.006;2022-09-12T10:43:40;19.50;99.90
28863;DHT22;15994;51.796;13.006;2022-09-12T10:46:21;19.50;99.90
28863;DHT22;15994;51.796;13.006;2022-09-12T10:48:49;19.70;99.90
28863;DHT22;15994;51.796;13.006;2022-09-12T10:51:28;19.80;99.90
28863;DHT22;15994;51.796;13.006;2022-09-12T10:53:57;19.80;99.90
28863;DHT22;15994;51.796;13.006;2022-09-12T10:56:33;19.80;99.90
28863;DHT22;15994;51.796;13.006;2022-09-12T11:02:21;20.30;99.90
28863;DHT22;15994;51.796;13.006;2022-09-12T11:10:20;20.50;99.90
28863;DHT22;15994;51.796;13.006;2022-09-12T11:16:11;20.70;99.90
28863;DHT22;15994;51.796;13.006;2022-09-12T11:24:33;20.30;99.90
28863;DHT22;15994;51.796;13.006;2022-09-12T11:27:21;20.20;99.90
28863;DHT22;15994;51.796;13.006;2022-09-12T11:30:03;20.10;99.90
28863;DHT22;15994;51.796;13.006;2022-09-12T11:35:30;20.20;99.90
28863;DHT22;15994;51.796;13.006;2022-09-12T11:38:26;20.40;99.90
28863;DHT22;15994;51.796;13.006;2022-09-12T11:41:16;20.60;99.90
28863;DHT22;15994;51.796;13.006;2022-09-12T11:48:57;21.50;99.90
28863;DHT22;15994;51.796;13.006;2022-09-12T11:54:25;21.90;99.90
28863;DHT22;15994;51.796;13.006;2022-09-12T12:02:24;22.10;99.90
28863;DHT22;15994;51.796;13.006;2022-09-12T12:07:39;22.30;99.90
28863;DHT22;15994;51.796;13.006;2022-09-12T12:10:21;22.10;99.90
28863;DHT22;15994;51.796;13.006;2022-09-12T12:12:49;22.30;99.90
28863;DHT22;15994;51.796;13.006;2022-09-12T12:15:17;22.30;99.90
28863;DHT22;15994;51.796;13.006;2022-09-12T12:17:44;22.10;99.90
28863;DHT22;15994;51.796;13.006;2022-09-12T12:20:15;22.20;99.90
28863;DHT22;15994;51.796;13.006;2022-09-12T12:22:52;22.20;99.90
28863;DHT22;15994;51.796;13.006;2022-09-12T12:27:56;22.50;99.90
28863;DHT22;15994;51.796;13.006;2022-09-12T12:32:59;22.70;99.90
28863;DHT22;15994;51.796;13.006;2022-09-12T12:38:24;22.70;99.90
28863;DHT22;15994;51.796;13.006;2022-09-12T12:40:51;22.70;99.90
28863;DHT22;15994;51.796;13.006;2022-09-12T12:43:28;22.60;99.90
28863;DHT22;15994;51.796;13.006;2022-09-12T12:46:01;22.40;99.90
28863;DHT22;15994;51.796;13.006;2022-09-12T12:48:31;22.50;99.90
28863;DHT22;15994;51.796;13.006;2022-09-12T12:51:26;22.30;99.90
28863;DHT22;15994;51.796;13.006;2022-09-12T12:53:55;22.30;99.90
28863;DHT22;15994;51.796;13.006;2022-09-12T12:59:03;22.00;99.90
28863;DHT22;15994;51.796;13.006;2022-09-12T13:01:37;22.20;99.90
28863;DHT22;15994;51.796;13.006;2022-09-12T13:04:18;22.20;99.90
28863;DHT22;15994;51.796;13.006;2022-09-12T13:07:06;22.40;99.90
28863;DHT22;15994;51.796;13.006;2022-09-12T13:09:38;22.40;99.90
28863;DHT22;15994;51.796;13.006;2022-09-12T13:12:18;22.50;99.90
28863;DHT22;15994;51.796;13.006;2022-09-12T13:14:47;22.40;99.90
28863;DHT22;15994;51.796;13.006;2022-09-12T13:17:27;22.60;99.90
28863;DHT22;15994;51.796;13.006;2022-09-12T13:20:22;22.70;99.90
28863;DHT22;15994;51.796;13.006;2022-09-12T13:22:51;22.70;99.90
28863;DHT22;15994;51.796;13.006;2022-09-12T13:28:15;22.40;99.90
28863;DHT22;15994;51.796;13.006;2022-09-12T13:31:03;22.50;99.90
28863;DHT22;15994;51.796;13.006;2022-09-12T13:33:47;22.50;99.90
28863;DHT22;15994;51.796;13.006;2022-09-12T13:39:14;22.40;99.90
28863;DHT22;15994;51.796;13.006;2022-09-12T13:44:51;22.30;99.90
28863;DHT22;15994;51.796;13.006;2022-09-12T13:47:25;22.30;99.90
28863;DHT22;15994;51.796;13.006;2022-09-12T13:49:54;22.50;99.90
28863;DHT22;15994;51.796;13.006;2022-09-12T13:52:24;22.60;99.90
28863;DHT22;15994;51.796;13.006;2022-09-12T13:54:53;22.80;99.90
28863;DHT22;15994;51.796;13.006;2022-09-12T13:57:35;23.00;99.90
28863;DHT22;15994;51.796;13.006;2022-09-12T14:00:06;22.90;99.90
28863;DHT22;15994;51.796;13.006;2022-09-12T14:02:35;22.70;99.90
28863;DHT22;15994;51.796;13.006;2022-09-12T14:05:11;22.80;99.90
28863;DHT22;15994;51.796;13.006;2022-09-12T14:10:21;23.00;99.90
28863;DHT22;15994;51.796;13.006;2022-09-12T14:12:48;22.80;99.90
28863;DHT22;15994;51.796;13.006;2022-09-12T14:15:29;22.90;99.90
28863;DHT22;15994;51.796;13.006;2022-09-12T14:17:58;22.70;99.90
28863;DHT22;15994;51.796;13.006;2022-09-12T14:20:27;22.50;99.90
28863;DHT22;15994;51.796;13.006;2022-09-12T14:23:02;22.40;99.90
28863;DHT22;15994;51.796;13.006;2022-09-12T14:25:41;22.50;99.90
28863;DHT22;15994;51.796;13.006;2022-09-12T14:28:13;22.50;99.90
28863;DHT22;15994;51.796;13.006;2022-09-12T14:30:57;22.40;99.90
28863;DHT22;15994;51.796;13.006;2022-09-12T14:33:24;22.30;99.90
28863;DHT22;15994;51.796;13.006;2022-09-12T14:36:04;22.30;99.90
28863;DHT22;15994;51.796;13.006;2022-09-12T14:38:39;22.40;99.90
28863;DHT22;15994;51.796;13.006;2022-09-12T14:41:08;22.50;99.90
28863;DHT22;15994;51.796;13.006;2022-09-12T14:43:38;22.50;99.90
28863;DHT22;15994;51.796;13.006;2022-09-12T14:46:17;22.50;99.90
28863;DHT22;15994;51.796;13.006;2022-09-12T14:48:49;22.50;99.90
28863;DHT22;15994;51.796;13.006;2022-09-12T14:51:27;22.40;99.90
28863;DHT22;15994;51.796;13.006;2022-09-12T14:53:56;22.50;99.90
28863;DHT22;15994;51.796;13.006;2022-09-12T14:56:38;22.30;99.90
28863;DHT22;15994;51.796;13.006;2022-09-12T14:59:28;22.20;99.90
28863;DHT22;15994;51.796;13.006;2022-09-12T15:02:21;22.30;99.90
28863;DHT22;15994;51.796;13.006;2022-09-12T15:04:54;22.30;99.90
28863;DHT22;15994;51.796;13.006;2022-09-12T15:10:26;22.20;99.90
28863;DHT22;15994;51.796;13.006;2022-09-12T15:15:31;22.00;99.90
28863;DHT22;15994;51.796;13.006;2022-09-12T15:17:58;22.00;99.90
28863;DHT22;15994;51.796;13.006;2022-09-12T15:20:24;21.70;99.90
28863;DHT22;15994;51.796;13.006;2022-09-12T15:22:51;21.70;99.90
28863;DHT22;15994;51.796;13.006;2022-09-12T15:25:18;21.90;99.90
28863;DHT22;15994;51.796;13.006;2022-09-12T15:27:45;21.90;99.90
28863;DHT22;15994;51.796;13.006;2022-09-12T15:30:12;21.90;99.90
28863;DHT22;15994;51.796;13.006;2022-09-12T15:32:41;21.90;99.90
28863;DHT22;15994;51.796;13.006;2022-09-12T15:35:16;21.70;99.90
28863;DHT22;15994;51.796;13.006;2022-09-12T15:37:43;21.70;99.90
28863;DHT22;15994;51.796;13.006;2022-09-12T15:40:11;21.70;99.90
28863;DHT22;15994;51.796;13.006;2022-09-12T15:42:38;21.70;99.90
28863;DHT22;15994;51.796;13.006;2022-09-12T15:45:20;21.60;99.90
28863;DHT22;15994;51.796;13.006;2022-09-12T15:47:48;21.50;99.90
28863;DHT22;15994;51.796;13.006;2022-09-12T15:50:14;21.50;99.90
28863;DHT22;15994;51.796;13.006;2022-09-12T15:52:41;21.50;99.90
28863;DHT22;15994;51.796;13.006;2022-09-12T15:55:19;21.60;99.90
28863;DHT22;15994;51.796;13.006;2022-09-12T15:57:46;21.50;99.90
28863;DHT22;15994;51.796;13.006;2022-09-12T16:00:14;21.40;99.90
28863;DHT22;15994;51.796;13.006;2022-09-12T16:02:42;21.40;99.90
28863;DHT22;15994;51.796;13.006;2022-09-12T16:05:18;21.30;99.90
28863;DHT22;15994;51.796;13.006;2022-09-12T16:07:45;21.40;99.90
28863;DHT22;15994;51.796;13.006;2022-09-12T16:10:14;21.50;99.90
28863;DHT22;15994;51.796;13.006;2022-09-12T16:12:42;21.40;99.90
28863;DHT22;15994;51.796;13.006;2022-09-12T16:15:14;21.30;99.90
28863;DHT22;15994;51.796;13.006;2022-09-12T16:17:41;21.30;99.90
28863;DHT22;15994;51.796;13.006;2022-09-12T16:20:08;21.20;99.90
28863;DHT22;15994;51.796;13.006;2022-09-12T16:22:35;21.10;99.90
28863;DHT22;15994;51.796;13.006;2022-09-12T16:25:03;21.00;99.90
28863;DHT22;15994;51.796;13.006;2022-09-12T16:27:30;21.10;99.90
28863;DHT22;15994;51.796;13.006;2022-09-12T16:29:57;20.90;99.90
28863;DHT22;15994;51.796;13.006;2022-09-12T16:32:23;20.80;99.90
28863;DHT22;15994;51.796;13.006;2022-09-12T16:34:50;20.80;99.90
28863;DHT22;15994;51.796;13.006;2022-09-12T16:37:17;20.80;99.90
28863;DHT22;15994;51.796;13.006;2022-09-12T16:39:44;20.70;99.90
28863;DHT22;15994;51.796;13.006;2022-09-12T16:42:10;20.60;99.90
28863;DHT22;15994;51.796;13.006;2022-09-12T16:44:37;20.50;99.90
28863;DHT22;15994;51.796;13.006;2022-09-12T16:47:03;20.40;99.90
28863;DHT22;15994;51.796;13.006;2022-09-12T16:49:30;20.40;99.90
28863;DHT22;15994;51.796;13.006;2022-09-12T16:51:57;20.40;99.90
28863;DHT22;15994;51.796;13.006;2022-09-12T16:54:23;20.30;99.90
28863;DHT22;15994;51.796;13.006;2022-09-12T16:56:50;20.20;99.90
28863;DHT22;15994;51.796;13.006;2022-09-12T16:59:17;20.20;99.90
28863;DHT22;15994;51.796;13.006;2022-09-12T17:01:43;20.00;99.90
28863;DHT22;15994;51.796;13.006;2022-09-12T17:04:10;20.00;99.90
28863;DHT22;15994;51.796;13.006;2022-09-12T17:06:37;19.80;99.90
28863;DHT22;15994;51.796;13.006;2022-09-12T17:09:04;19.70;99.90
28863;DHT22;15994;51.796;13.006;2022-09-12T17:11:35;19.70;99.90
28863;DHT22;15994;51.796;13.006;2022-09-12T17:14:04;19.50;99.90
28863;DHT22;15994;51.796;13.006;2022-09-12T17:16:33;19.40;99.90
28863;DHT22;15994;51.796;13.006;2022-09-12T17:19:00;19.30;99.90
28863;DHT22;15994;51.796;13.006;2022-09-12T17:21:26;19.20;99.90
28863;DHT22;15994;51.796;13.006;2022-09-12T17:23:53;19.00;99.90
28863;DHT22;15994;51.796;13.006;2022-09-12T17:26:20;19.10;99.90
28863;DHT22;15994;51.796;13.006;2022-09-12T17:28:46;19.00;99.90
28863;DHT22;15994;51.796;13.006;2022-09-12T17:31:14;18.70;99.90
28863;DHT22;15994;51.796;13.006;2022-09-12T17:33:40;18.70;99.90
28863;DHT22;15994;51.796;13.006;2022-09-12T17:36:09;18.70;99.90
28863;DHT22;15994;51.796;13.006;2022-09-12T17:38:37;18.80;99.90
28863;DHT22;15994;51.796;13.006;2022-09-12T17:41:13;18.70;99.90
28863;DHT22;15994;51.796;13.006;2022-09-12T17:43:51;18.60;99.90
28863;DHT22;15994;51.796;13.006;2022-09-12T17:46:20;18.50;99.90
28863;DHT22;15994;51.796;13.006;2022-09-12T17:48:51;18.50;99.90
28863;DHT22;15994;51.796;13.006;2022-09-12T17:51:18;18.50;99.90
28863;DHT22;15994;51.796;13.006;2022-09-12T17:53:45;18.40;99.90
28863;DHT22;15994;51.796;13.006;2022-09-12T17:56:12;18.40;99.90
28863;DHT22;15994;51.796;13.006;2022-09-12T17:58:39;18.40;99.90
28863;DHT22;15994;51.796;13.006;2022-09-12T18:01:10;18.30;99.90